Weather reports worldwide

Advertisment
Valencia de Alcantara, Spain (8260): temperature & dewpoint: 04.04.2020 20:00:00 - 10.04.2020 20:00:00 (CEST)Valencia de Alcantara, Spain (8260): wind speed & gusts: 04.04.2020 20:00:00 - 10.04.2020 20:00:00 (CEST)Valencia de Alcantara, Spain (8260): wind direction: 04.04.2020 20:00:00 - 10.04.2020 20:00:00 (CEST)Valencia de Alcantara, Spain (8260): visibility: 04.04.2020 20:00:00 - 10.04.2020 20:00:00 (CEST)Valencia de Alcantara, Spain (8260): sunshine duration: 04.04.2020 20:00:00 - 10.04.2020 20:00:00 (CEST)Valencia de Alcantara, Spain (8260): precipitation: 04.04.2020 20:00:00 - 10.04.2020 20:00:00 (CEST)
Date & Time tt [°C] td [°C] ff [km/h] ff [kn] fx [km/h] fx [kn] dd vv [km] sd [min] rr [mm]
10.04.2020 20:00:00 - - - - - - - - - -
10.04.2020 19:00:00 19,1 10,9 16 8 25 13 W 20 32 0,0
10.04.2020 18:00:00 20,2 10,9 14 8 28 15 W 20 44 0,0
10.04.2020 17:00:00 19,7 11,7 15 8 33 18 W 20 50 0,0
10.04.2020 16:00:00 19,2 11,5 19 10 31 17 W 20 19 0,0
10.04.2020 15:00:00 18,1 11,4 15 8 23 12 WNW 20 25 0,0
10.04.2020 14:00:00 18,1 11,9 10 6 23 12 WNW 20 28 -
10.04.2020 13:00:00 16,7 13,2 11 6 20 11 WNW 20 18 0,0
10.04.2020 12:00:00 15,7 13,0 6 3 13 7 NNW 20 25 0,0
10.04.2020 11:00:00 15,0 13,0 7 4 14 8 WNW 20 22 0,0
10.04.2020 10:00:00 14,2 13,4 4 2 9 5 NW 10 25 0,0
10.04.2020 09:00:00 13,2 12,6 6 3 11 6 WSW 10 0 0,0
10.04.2020 08:00:00 13,2 12,6 5 3 14 7 SW 10 0 -
10.04.2020 07:00:00 13,0 12,4 2 1 6 3 WSW - 0 0,0
10.04.2020 06:00:00 13,0 12,2 4 2 8 4 NNE 7 0 0,0
10.04.2020 05:00:00 13,2 12,4 5 3 7 4 S 15 0 0,0
10.04.2020 04:00:00 13,3 12,4 4 2 11 6 NNW 13 0 0,0
10.04.2020 03:00:00 13,3 12,4 5 3 14 8 SSW 16 0 0,0
10.04.2020 02:00:00 13,5 12,9 7 4 13 7 WSW 18 0 -
10.04.2020 01:00:00 14,1 13,5 6 3 10 5 W 17 0 0,0
10.04.2020 00:00:00 14,3 13,7 8 5 14 7 W 20 0 0,2
09.04.2020 23:00:00 14,6 14,0 6 3 9 5 NW 13 0 0,0
09.04.2020 22:00:00 14,6 14,0 2 1 5 3 S 20 0 1,0
09.04.2020 21:00:00 14,8 14,0 3 2 6 3 NNW 6 0 3,2
09.04.2020 20:00:00 15,3 13,7 2 1 6 3 N 20 0 -
09.04.2020 19:00:00 15,2 13,7 2 1 11 6 N 13 0 0,8
09.04.2020 18:00:00 15,3 13,5 9 5 16 9 WNW 15 0 0,0
09.04.2020 17:00:00 15,8 13,8 3 2 10 5 N 20 0 0,2
09.04.2020 16:00:00 14,9 13,9 6 3 11 6 NNE 13 0 1,4
09.04.2020 15:00:00 14,4 13,6 3 1 8 4 NNE 6 0 1,4
09.04.2020 14:00:00 14,6 13,8 4 2 7 4 NNW 4,7 0 -
09.04.2020 13:00:00 14,2 13,4 5 3 9 5 NNW 4,4 0 2,0
09.04.2020 12:00:00 13,9 13,1 6 3 13 7 NNW 3,5 0 1,4
09.04.2020 11:00:00 14,2 13,6 5 3 13 7 WNW 5 0 0,0
09.04.2020 10:00:00 14,0 13,4 5 3 8 4 WNW 6 0 0,0
09.04.2020 09:00:00 14,0 13,4 4 2 9 5 NW 3,4 0 0,4
09.04.2020 08:00:00 14,4 13,8 4 2 6 4 WNW 3,7 0 -
09.04.2020 07:00:00 14,5 13,9 2 1 5 3 N 5 0 0,2
09.04.2020 06:00:00 14,7 13,9 4 2 6 4 ENE 1,5 0 0,0
09.04.2020 05:00:00 14,9 13,9 3 1 6 3 WNW 2,8 0 0,0
09.04.2020 04:00:00 15,1 14,1 3 2 6 3 SSW 13 0 0,2
09.04.2020 03:00:00 15,3 14,2 4 2 8 5 SW 16 0 0,2
09.04.2020 02:00:00 15,6 14,3 5 3 13 7 SW 12 0 -
09.04.2020 01:00:00 16,0 14,0 7 4 11 6 WSW 20 0 0,0
09.04.2020 00:00:00 16,4 13,7 5 3 10 5 W 20 0 0,0
08.04.2020 23:00:00 16,5 14,0 4 2 8 4 W 20 0 0,0
08.04.2020 22:00:00 16,8 14,1 4 2 13 7 NW 20 0 0,0
08.04.2020 21:00:00 17,7 14,0 9 5 14 8 WNW 20 0 0,0
08.04.2020 20:00:00 18,7 14,2 8 5 19 10 WNW 20 0 -
08.04.2020 19:00:00 20,5 12,0 4 2 12 7 SSW 20 0 0,0
08.04.2020 18:00:00 20,7 11,1 8 4 13 7 SW 20 10 0,0
08.04.2020 17:00:00 20,5 12,2 5 3 18 10 S 20 0 0,0
08.04.2020 16:00:00 19,5 12,3 10 5 23 12 SSE 20 0 0,0
08.04.2020 15:00:00 20,4 11,1 11 6 24 13 SE 20 52 0,0
08.04.2020 14:00:00 19,8 12,8 10 5 21 11 SE 20 35 -
08.04.2020 13:00:00 18,3 13,2 10 6 21 12 SE 20 16 0,0
08.04.2020 12:00:00 17,8 13,1 13 7 21 12 E 20 41 0,0
08.04.2020 11:00:00 17,5 13,6 10 6 17 9 E 20 60 0,0
08.04.2020 10:00:00 13,6 12,8 3 2 9 5 SSW 19 30 0,0
08.04.2020 09:00:00 10,6 10,0 6 3 8 5 SW 13 4 0,0
08.04.2020 08:00:00 10,3 9,7 5 3 10 5 S 12 0 -
08.04.2020 07:00:00 10,0 9,2 5 3 8 4 SSW 12 0 0,0
08.04.2020 06:00:00 10,4 9,6 6 3 9 5 SSW 13 0 0,0
08.04.2020 05:00:00 10,6 9,7 4 2 7 4 S 12 0 0,0
08.04.2020 04:00:00 11,5 10,4 3 2 8 4 S 14 0 0,0
08.04.2020 03:00:00 12,7 11,4 5 3 11 6 S 18 0 0,0
08.04.2020 02:00:00 13,6 11,8 8 5 15 8 S 20 0 -
08.04.2020 01:00:00 14,3 12,2 10 5 16 8 SSE 20 0 0,0
08.04.2020 00:00:00 15,0 12,5 9 5 13 7 S 20 0 0,0
07.04.2020 23:00:00 15,5 12,6 8 4 14 8 SSE 20 0 0,0
07.04.2020 22:00:00 15,7 12,6 6 3 14 8 S 20 0 0,0
07.04.2020 21:00:00 16,9 12,6 9 5 18 10 SSE 20 0 0,0
07.04.2020 20:00:00 17,9 12,8 11 6 25 14 SSE 20 0 -
07.04.2020 19:00:00 18,4 13,1 12 6 25 14 SSE 20 18 0,0
07.04.2020 18:00:00 18,6 12,6 12 7 29 15 SSE 20 15 0,0
07.04.2020 17:00:00 19,2 12,9 14 7 32 18 SSE 20 58 0,0
07.04.2020 16:00:00 19,0 12,7 16 8 29 15 SSE 20 45 0,0
07.04.2020 15:00:00 17,9 13,0 15 8 28 15 SSE 20 40 0,0
07.04.2020 14:00:00 17,2 14,1 13 7 27 15 S 20 17 -
07.04.2020 13:00:00 16,8 13,7 15 8 29 15 SSE 20 35 0,0
07.04.2020 12:00:00 15,9 13,2 13 7 27 14 SSE 20 40 0,0
07.04.2020 11:00:00 16,5 13,6 10 5 21 11 S 20 46 0,0
07.04.2020 10:00:00 13,7 12,9 9 5 14 8 SSE 20 0 1,2
07.04.2020 09:00:00 13,0 12,2 8 4 20 11 ESE 9 0 0,2
07.04.2020 08:00:00 13,0 12,2 12 7 20 11 ESE 20 0 -
07.04.2020 07:00:00 13,0 12,2 10 5 23 12 SE 7 0 1,4
07.04.2020 06:00:00 13,2 12,4 10 5 25 14 SE 6 0 1,2
07.04.2020 05:00:00 13,4 12,5 11 6 27 14 SE 20 0 0,0
07.04.2020 04:00:00 13,5 12,6 15 8 28 15 SE 14 0 0,0
07.04.2020 03:00:00 13,5 12,6 16 9 29 16 SSE 20 0 0,6
07.04.2020 02:00:00 13,5 12,6 13 7 33 18 SE 6 0 -
07.04.2020 01:00:00 13,2 12,3 18 10 38 21 SE 20 0 3,4
07.04.2020 00:00:00 13,3 12,5 12 7 22 12 ESE 20 0 1,6
06.04.2020 23:00:00 13,3 12,4 8 5 18 10 SE 3,3 0 1,0
06.04.2020 22:00:00 13,5 12,6 10 5 20 11 ESE 8 0 1,8
06.04.2020 21:00:00 13,6 12,5 4 2 23 12 E 15 0 1,8
06.04.2020 20:00:00 14,1 13,0 8 5 20 11 ESE 10 0 -
06.04.2020 19:00:00 14,7 12,7 2 1 10 5 SE 6 0 1,0
06.04.2020 18:00:00 15,2 12,9 5 3 18 10 SSE 11 2 0,8
06.04.2020 17:00:00 15,0 12,3 9 5 21 12 SSE 11 0 0,8
06.04.2020 16:00:00 15,7 11,9 13 7 25 14 S 17 0 0,0
06.04.2020 15:00:00 16,3 11,7 13 7 24 13 SSE 20 3 0,0
06.04.2020 14:00:00 15,1 11,3 14 8 26 14 SE 20 5 -
06.04.2020 13:00:00 14,8 11,2 12 6 24 13 SSE 20 3 0,0
06.04.2020 12:00:00 14,2 10,2 9 5 21 12 S 20 0 0,0
06.04.2020 11:00:00 13,0 10,7 6 4 14 8 S 20 0 0,0
06.04.2020 10:00:00 11,7 10,6 4 2 15 8 ENE 20 30 0,0
06.04.2020 09:00:00 10,3 9,4 7 4 19 10 SSE 5 0 0,0
06.04.2020 08:00:00 9,5 8,3 9 5 11 6 SSE 20 0 -
06.04.2020 07:00:00 10,3 8,9 3 2 8 4 NW 20 0 0,0
06.04.2020 06:00:00 10,9 9,2 7 4 16 8 W 20 0 0,0
06.04.2020 05:00:00 11,1 9,4 3 2 10 5 SSW 20 0 0,0
06.04.2020 04:00:00 11,6 9,9 4 2 16 9 ESE 20 0 0,0
06.04.2020 03:00:00 12,4 10,6 9 5 19 10 SW 20 0 0,0
06.04.2020 02:00:00 12,8 11,0 7 4 19 10 SW 20 0 -
06.04.2020 01:00:00 13,1 11,2 8 4 26 14 SSW 20 0 0,0
06.04.2020 00:00:00 13,8 11,7 10 6 32 17 SSW 20 0 0,0
05.04.2020 23:00:00 14,4 12,3 11 6 20 11 SW 20 0 0,0
05.04.2020 22:00:00 14,3 12,5 11 6 28 15 S 20 0 0,2
05.04.2020 21:00:00 14,4 13,1 16 9 37 20 SSE 9 0 0,6
05.04.2020 20:00:00 14,5 13,2 14 7 45 24 SSE 20 0 -
05.04.2020 19:00:00 14,4 13,0 23 12 48 26 SSE 4,7 0 1,2
05.04.2020 18:00:00 14,6 12,8 23 12 49 26 SSE 5 0 0,6
05.04.2020 17:00:00 15,7 11,9 22 12 45 25 SSE 20 0 0,0
05.04.2020 16:00:00 15,7 11,9 22 12 45 24 SSE 20 0 0,0
05.04.2020 15:00:00 14,9 12,4 19 10 45 25 SSE 20 1 0,0
05.04.2020 14:00:00 14,3 12,7 24 13 46 25 SSE 20 6 -
05.04.2020 13:00:00 14,2 10,6 24 13 48 26 SSE 11 32 0,0
05.04.2020 12:00:00 13,9 9,4 25 14 49 27 SE 20 26 0,0
05.04.2020 11:00:00 11,8 8,3 23 12 47 25 SE 20 0 0,0
05.04.2020 10:00:00 11,4 8,3 29 15 47 26 SSE 20 0 0,0
05.04.2020 09:00:00 11,0 8,2 27 14 45 24 SSE 20 7 0,0
05.04.2020 08:00:00 11,0 8,1 25 14 39 21 SSE 20 0 -
05.04.2020 07:00:00 11,0 8,2 19 11 38 20 SSE 20 0 0,0
05.04.2020 06:00:00 10,9 8,3 16 8 27 15 SSE 20 0 0,0
05.04.2020 05:00:00 11,2 8,6 16 9 32 17 SSE 20 0 0,0
05.04.2020 04:00:00 11,2 8,6 13 7 28 15 S 20 0 0,0
05.04.2020 03:00:00 11,4 8,8 12 7 26 14 SSE 20 0 0,0
05.04.2020 02:00:00 12,1 8,6 15 8 26 14 SE 20 0 -
05.04.2020 01:00:00 12,1 8,2 11 6 29 15 SE 20 0 0,0
05.04.2020 00:00:00 12,4 8,3 18 10 30 16 SE 20 0 0,0
04.04.2020 23:00:00 12,8 8,3 17 9 31 17 SE 20 0 0,0
04.04.2020 22:00:00 12,6 9,1 11 6 24 13 SE 20 0 0,0
04.04.2020 21:00:00 12,8 8,7 14 7 30 16 SE 20 0 0,0
04.04.2020 20:00:00 13,9 8,3 13 7 31 17 SSE 20 0 -

tt = temperature
td = dewpoint
ff = wind speed
fx = gusts
dd = wind direction
vv = visibility
sd = sunshine duration
rr = precipitation

Next stations